createdAt,value
2023-11-12T00:00:13.830Z,5.60
2023-11-12T00:02:41.350Z,5.50
2023-11-12T00:05:13.046Z,5.50
2023-11-12T00:07:41.423Z,5.50
2023-11-12T00:10:13.330Z,5.50
2023-11-12T00:12:41.417Z,5.50
2023-11-12T00:15:09.870Z,5.50
2023-11-12T00:17:38.808Z,5.50
2023-11-12T00:20:07.235Z,5.40
2023-11-12T00:22:35.130Z,5.40
2023-11-12T00:25:02.894Z,5.40
2023-11-12T00:27:30.461Z,5.40
2023-11-12T00:29:57.961Z,5.40
2023-11-12T00:32:25.449Z,5.40
2023-11-12T00:34:54.019Z,5.40
2023-11-12T00:37:21.787Z,5.30
2023-11-12T00:39:49.190Z,5.30
2023-11-12T00:42:17.116Z,5.30
2023-11-12T00:44:46.745Z,5.30
2023-11-12T00:47:14.240Z,5.30
2023-11-12T00:49:41.904Z,5.30
2023-11-12T00:52:09.830Z,5.30
2023-11-12T00:54:37.591Z,5.30
2023-11-12T00:57:05.519Z,5.20
2023-11-12T00:59:33.056Z,5.20
2023-11-12T01:02:00.637Z,5.30
2023-11-12T01:04:28.635Z,5.20
2023-11-12T01:06:56.134Z,5.20
2023-11-12T01:09:23.690Z,5.20
2023-11-12T01:11:51.238Z,5.20
2023-11-12T01:14:19.097Z,5.20
2023-11-12T01:16:46.759Z,5.20
2023-11-12T01:19:14.281Z,5.20
2023-11-12T01:21:41.889Z,5.20
2023-11-12T01:24:09.782Z,5.20
2023-11-12T01:26:37.476Z,5.20
2023-11-12T01:29:05.057Z,5.10
2023-11-12T01:31:33.167Z,5.10
2023-11-12T01:34:01.394Z,5.10
2023-11-12T01:36:28.955Z,5.10
2023-11-12T01:38:56.552Z,5.10
2023-11-12T01:41:24.798Z,5.10
2023-11-12T01:43:52.303Z,5.10
2023-11-12T01:46:20.166Z,5.10
2023-11-12T01:48:49.192Z,5.10
2023-11-12T01:51:18.938Z,5.10
2023-11-12T01:53:47.183Z,5.10
2023-11-12T01:56:16.504Z,5.10
2023-11-12T01:58:45.644Z,5.00
2023-11-12T02:01:13.706Z,5.10
2023-11-12T02:03:43.300Z,5.00
2023-11-12T02:06:13.831Z,5.10
2023-11-12T02:08:41.502Z,5.00
2023-11-12T02:11:10.734Z,5.10
2023-11-12T02:13:42.427Z,5.10
2023-11-12T02:16:10.515Z,5.10
2023-11-12T02:18:37.998Z,5.10
2023-11-12T02:21:05.566Z,5.10
2023-11-12T02:23:38.957Z,5.10
2023-11-12T02:26:06.784Z,5.20
2023-11-12T02:28:34.741Z,5.20
2023-11-12T02:31:02.296Z,5.20
2023-11-12T02:33:29.940Z,5.20
2023-11-12T02:35:57.933Z,5.20
2023-11-12T02:38:25.689Z,5.20
2023-11-12T02:40:53.352Z,5.30
2023-11-12T02:43:21.300Z,5.30
2023-11-12T02:45:50.005Z,5.30
2023-11-12T02:48:17.674Z,5.30
2023-11-12T02:50:45.500Z,5.30
2023-11-12T02:53:13.299Z,5.30
2023-11-12T02:55:42.112Z,5.40
2023-11-12T02:58:11.283Z,5.30
2023-11-12T03:00:39.240Z,5.30
2023-11-12T03:03:10.246Z,5.30
2023-11-12T03:05:37.719Z,5.30
2023-11-12T03:08:05.325Z,5.30
2023-11-12T03:10:32.808Z,5.30
2023-11-12T03:13:00.764Z,5.30
2023-11-12T03:15:28.999Z,5.30
2023-11-12T03:17:56.640Z,5.30
2023-11-12T03:20:24.593Z,5.30
2023-11-12T03:22:52.384Z,5.30
2023-11-12T03:25:19.881Z,5.30
2023-11-12T03:27:47.584Z,5.30
2023-11-12T03:30:15.704Z,5.40
2023-11-12T03:32:43.276Z,5.40
2023-11-12T03:35:10.980Z,5.40
2023-11-12T03:37:39.128Z,5.40
2023-11-12T03:40:08.686Z,5.40
2023-11-12T03:42:36.320Z,5.40
2023-11-12T03:45:04.406Z,5.40
2023-11-12T03:47:32.448Z,5.40
2023-11-12T03:50:00.640Z,5.50
2023-11-12T03:52:28.150Z,5.50
2023-11-12T03:54:56.001Z,5.50
2023-11-12T03:57:23.765Z,5.60
2023-11-12T03:59:53.138Z,5.60
2023-11-12T04:02:22.097Z,5.70
2023-11-12T04:04:49.742Z,5.70
2023-11-12T04:07:17.365Z,5.70
2023-11-12T04:09:44.821Z,5.80
2023-11-12T04:12:12.834Z,5.80
2023-11-12T04:14:40.325Z,5.90
2023-11-12T04:17:07.956Z,5.90
2023-11-12T04:19:35.538Z,5.90
2023-11-12T04:22:03.101Z,6.00
2023-11-12T04:24:30.573Z,6.00
2023-11-12T04:26:58.030Z,6.00
2023-11-12T04:29:25.473Z,6.00
2023-11-12T04:31:53.090Z,6.10
2023-11-12T04:34:20.523Z,6.10
2023-11-12T04:36:48.221Z,6.20
2023-11-12T04:39:16.769Z,6.20
2023-11-12T04:41:44.306Z,6.30
2023-11-12T04:44:13.949Z,6.30
2023-11-12T04:46:41.507Z,6.30
2023-11-12T04:49:08.985Z,6.40
2023-11-12T04:51:36.488Z,6.40
2023-11-12T04:54:04.148Z,6.40
2023-11-12T04:56:31.683Z,6.50
2023-11-12T04:58:59.081Z,6.50
2023-11-12T05:01:26.655Z,6.50
2023-11-12T05:03:54.096Z,6.60
2023-11-12T05:06:22.955Z,6.60
2023-11-12T05:08:50.458Z,6.60
2023-11-12T05:11:17.845Z,6.60
2023-11-12T05:13:45.253Z,6.70
2023-11-12T05:16:12.832Z,6.70
2023-11-12T05:18:41.136Z,6.70
2023-11-12T05:21:08.696Z,6.70
2023-11-12T05:23:37.455Z,6.70
2023-11-12T05:26:05.271Z,6.80
2023-11-12T05:28:33.014Z,6.80
2023-11-12T05:31:00.686Z,6.90
2023-11-12T05:33:28.317Z,6.90
2023-11-12T05:35:55.777Z,7.00
2023-11-12T05:38:23.345Z,7.00
2023-11-12T05:40:50.764Z,7.00
2023-11-12T05:43:18.158Z,7.00
2023-11-12T05:45:46.205Z,7.10
2023-11-12T05:48:14.704Z,7.10
2023-11-12T05:50:42.960Z,7.10
2023-11-12T05:53:10.462Z,7.10
2023-11-12T05:55:38.495Z,7.20
2023-11-12T05:58:06.038Z,7.20
2023-11-12T06:00:33.614Z,7.20
2023-11-12T06:03:01.117Z,7.20
2023-11-12T06:05:28.522Z,7.20
2023-11-12T06:07:56.018Z,7.30
2023-11-12T06:10:24.489Z,7.30
2023-11-12T06:12:51.935Z,7.30
2023-11-12T06:15:26.881Z,7.30
2023-11-12T06:17:54.648Z,7.30
2023-11-12T06:20:22.413Z,7.40
2023-11-12T06:22:49.892Z,7.40
2023-11-12T06:25:17.703Z,7.40
2023-11-12T06:27:45.144Z,7.40
2023-11-12T06:30:12.839Z,7.40
2023-11-12T06:32:40.635Z,7.50
2023-11-12T06:35:08.549Z,7.50
2023-11-12T06:37:36.243Z,7.50
2023-11-12T06:40:04.501Z,7.50
2023-11-12T06:42:33.469Z,7.50
2023-11-12T06:45:00.942Z,7.60
2023-11-12T06:47:28.473Z,7.60
2023-11-12T06:49:57.818Z,7.60
2023-11-12T06:52:25.481Z,7.60
2023-11-12T06:54:52.999Z,7.60
2023-11-12T06:57:20.625Z,7.70
2023-11-12T06:59:48.039Z,7.70
2023-11-12T07:02:16.520Z,7.70
2023-11-12T07:04:44.108Z,7.70
2023-11-12T07:07:16.862Z,7.70
2023-11-12T07:09:47.426Z,7.70
2023-11-12T07:12:16.170Z,7.70
2023-11-12T07:14:43.884Z,7.70
2023-11-12T07:17:11.720Z,7.70
2023-11-12T07:19:41.243Z,7.70
2023-11-12T07:22:08.991Z,7.80
2023-11-12T07:24:37.158Z,7.80
2023-11-12T07:27:05.219Z,7.80
2023-11-12T07:29:32.686Z,7.80
2023-11-12T07:32:00.216Z,7.80
2023-11-12T07:34:27.745Z,7.80
2023-11-12T07:36:55.170Z,7.80
2023-11-12T07:39:22.726Z,7.90
2023-11-12T07:41:50.191Z,7.90
2023-11-12T07:44:24.369Z,7.90
2023-11-12T07:46:52.083Z,7.90
2023-11-12T07:49:19.696Z,7.90
2023-11-12T07:51:49.715Z,7.90
2023-11-12T07:54:17.547Z,7.90
2023-11-12T07:56:45.661Z,8.00
2023-11-12T07:59:13.412Z,8.00
2023-11-12T08:01:41.011Z,8.00
2023-11-12T08:04:12.958Z,8.00
2023-11-12T08:06:40.626Z,8.00
2023-11-12T08:09:09.328Z,8.10
2023-11-12T08:11:43.925Z,8.10
2023-11-12T08:14:11.411Z,8.10
2023-11-12T08:16:39.492Z,8.20
2023-11-12T08:19:07.284Z,8.20
2023-11-12T08:21:34.841Z,8.30
2023-11-12T08:24:02.672Z,8.30
2023-11-12T08:26:30.940Z,8.30
2023-11-12T08:28:58.730Z,8.30
2023-11-12T08:31:27.035Z,8.40
2023-11-12T08:33:54.718Z,8.40
2023-11-12T08:36:22.292Z,8.50
2023-11-12T08:38:49.837Z,8.50
2023-11-12T08:41:17.339Z,8.50
2023-11-12T08:43:47.081Z,8.60
2023-11-12T08:46:16.432Z,8.60
2023-11-12T08:48:44.270Z,8.70
2023-11-12T08:51:13.038Z,8.70
2023-11-12T08:53:41.158Z,8.70
2023-11-12T08:56:08.983Z,8.80
2023-11-12T08:58:37.076Z,8.80
2023-11-12T09:01:09.850Z,8.80
2023-11-12T09:03:38.366Z,8.90
2023-11-12T09:06:06.577Z,8.90
2023-11-12T09:08:34.214Z,9.00
2023-11-12T09:11:02.487Z,9.00
2023-11-12T09:13:29.981Z,9.10
2023-11-12T09:15:57.613Z,9.10
2023-11-12T09:18:28.391Z,9.10
2023-11-12T09:20:56.253Z,9.20
2023-11-12T09:23:23.754Z,9.20
2023-11-12T09:25:52.005Z,9.20
2023-11-12T09:28:19.718Z,9.30
2023-11-12T09:30:54.598Z,9.30
2023-11-12T09:33:27.479Z,9.30
2023-11-12T09:35:55.249Z,9.30
2023-11-12T09:38:22.840Z,9.40
2023-11-12T09:40:53.476Z,9.40
2023-11-12T09:43:21.054Z,9.40
2023-11-12T09:45:55.738Z,9.50
2023-11-12T09:48:36.446Z,9.50
2023-11-12T09:51:06.797Z,9.50
2023-11-12T09:53:35.524Z,9.50
2023-11-12T09:56:10.948Z,9.60
2023-11-12T09:58:44.205Z,9.60
2023-11-12T10:01:12.975Z,9.60
2023-11-12T10:03:42.496Z,9.70
2023-11-12T10:06:12.738Z,9.70
2023-11-12T10:08:40.610Z,9.70
2023-11-12T10:11:16.287Z,9.80
2023-11-12T10:13:43.976Z,9.80
2023-11-12T10:16:32.430Z,9.80
2023-11-12T10:19:16.620Z,9.90
2023-11-12T10:21:59.111Z,9.90
2023-11-12T10:24:31.539Z,9.90
2023-11-12T10:27:04.223Z,10.00
2023-11-12T10:29:33.012Z,10.10
2023-11-12T10:32:00.551Z,10.10
2023-11-12T10:34:28.923Z,10.10
2023-11-12T10:37:17.122Z,10.20
2023-11-12T10:39:45.848Z,10.20
2023-11-12T10:42:27.576Z,10.30
2023-11-12T10:44:58.024Z,10.40
2023-11-12T10:47:33.761Z,10.40
2023-11-12T10:50:04.135Z,10.50
2023-11-12T10:52:32.169Z,10.60
2023-11-12T10:55:00.443Z,10.70
2023-11-12T10:57:30.049Z,10.70
2023-11-12T10:59:57.766Z,10.70
2023-11-12T11:02:30.965Z,10.80
2023-11-12T11:05:00.147Z,10.80
2023-11-12T11:07:27.891Z,10.90
2023-11-12T11:09:56.928Z,10.90
2023-11-12T11:12:25.872Z,11.00
2023-11-12T11:14:54.092Z,11.00
2023-11-12T11:17:38.052Z,11.10
2023-11-12T11:20:06.561Z,11.20
2023-11-12T11:22:34.736Z,11.30
2023-11-12T11:25:22.924Z,11.30
2023-11-12T11:27:51.753Z,11.40
2023-11-12T11:30:19.474Z,11.50
2023-11-12T11:32:53.204Z,11.60
2023-11-12T11:35:22.498Z,11.80
2023-11-12T11:38:26.116Z,11.80
2023-11-12T11:40:57.924Z,12.00
2023-11-12T11:43:25.370Z,12.00
2023-11-12T11:46:12.218Z,12.10
2023-11-12T11:48:49.023Z,12.20
2023-11-12T11:51:37.575Z,12.30
2023-11-12T11:54:06.173Z,12.40
2023-11-12T11:56:35.358Z,12.40
2023-11-12T11:59:03.993Z,12.50
2023-11-12T12:01:45.823Z,12.50
2023-11-12T12:04:14.640Z,12.50
2023-11-12T12:06:44.380Z,12.50
2023-11-12T12:09:20.397Z,12.50
2023-11-12T12:11:52.847Z,12.50
2023-11-12T12:14:27.794Z,12.50
2023-11-12T12:17:05.349Z,12.50
2023-11-12T12:19:32.796Z,12.50
2023-11-12T12:22:00.433Z,12.50
2023-11-12T12:24:28.230Z,12.40
2023-11-12T12:26:57.480Z,12.50
2023-11-12T12:29:26.055Z,12.50
2023-11-12T12:31:55.775Z,12.50
2023-11-12T12:34:25.691Z,12.50
2023-11-12T12:37:08.902Z,12.50
2023-11-12T12:40:02.301Z,12.60
2023-11-12T12:42:31.982Z,12.60
2023-11-12T12:44:59.717Z,12.60
2023-11-12T12:47:35.759Z,12.70
2023-11-12T12:50:27.611Z,12.70
2023-11-12T12:53:15.714Z,12.80
2023-11-12T12:55:47.646Z,12.80
2023-11-12T12:58:15.486Z,12.80
2023-11-12T13:00:46.556Z,12.80
2023-11-12T13:03:31.646Z,12.80
2023-11-12T13:05:59.623Z,12.80
2023-11-12T13:08:29.716Z,12.80
2023-11-12T13:10:57.289Z,12.80
2023-11-12T13:13:26.952Z,12.80
2023-11-12T13:15:55.008Z,12.70
2023-11-12T13:18:23.568Z,12.70
2023-11-12T13:20:52.675Z,12.70
2023-11-12T13:23:20.516Z,12.70
2023-11-12T13:25:52.669Z,12.70
2023-11-12T13:28:22.273Z,12.60
2023-11-12T13:30:49.818Z,12.60
2023-11-12T13:33:17.595Z,12.60
2023-11-12T13:35:46.465Z,12.50
2023-11-12T13:38:13.909Z,12.50
2023-11-12T13:40:41.446Z,12.50
2023-11-12T13:43:09.178Z,12.40
2023-11-12T13:45:39.779Z,12.40
2023-11-12T13:48:09.428Z,12.30
2023-11-12T13:50:37.183Z,12.20
2023-11-12T13:53:10.688Z,12.20
2023-11-12T13:55:41.956Z,12.20
2023-11-12T13:58:12.922Z,12.10
2023-11-12T14:00:42.997Z,12.10
2023-11-12T14:03:11.864Z,12.10
2023-11-12T14:05:40.310Z,12.10
2023-11-12T14:08:11.299Z,12.20
2023-11-12T14:10:40.810Z,12.30
2023-11-12T14:13:10.510Z,12.40
2023-11-12T14:15:39.043Z,12.40
2023-11-12T14:18:06.643Z,12.40
2023-11-12T14:20:34.845Z,12.40
2023-11-12T14:23:02.521Z,12.40
2023-11-12T14:25:31.278Z,12.50
2023-11-12T14:27:58.982Z,12.40
2023-11-12T14:30:26.672Z,12.40
2023-11-12T14:32:54.317Z,12.40
2023-11-12T14:35:24.691Z,12.30
2023-11-12T14:37:52.261Z,12.30
2023-11-12T14:40:19.791Z,12.20
2023-11-12T14:42:47.455Z,12.20
2023-11-12T14:45:25.065Z,12.20
2023-11-12T14:47:56.746Z,12.10
2023-11-12T14:50:24.343Z,12.10
2023-11-12T14:52:53.397Z,12.00
2023-11-12T14:55:26.081Z,12.00
2023-11-12T14:57:58.956Z,12.00
2023-11-12T15:00:33.553Z,12.00
2023-11-12T15:03:05.994Z,11.90
2023-11-12T15:05:34.329Z,11.90
2023-11-12T15:08:02.002Z,11.90
2023-11-12T15:10:30.231Z,11.90
2023-11-12T15:12:58.742Z,11.80
2023-11-12T15:15:26.612Z,11.80
2023-11-12T15:17:55.473Z,11.80
2023-11-12T15:20:23.056Z,11.80
2023-11-12T15:22:52.156Z,11.70
2023-11-12T15:25:20.663Z,11.70
2023-11-12T15:27:50.520Z,11.60
2023-11-12T15:30:19.225Z,11.60
2023-11-12T15:32:47.263Z,11.50
2023-11-12T15:35:15.826Z,11.50
2023-11-12T15:37:45.360Z,11.50
2023-11-12T15:40:20.061Z,11.40
2023-11-12T15:42:52.860Z,11.40
2023-11-12T15:45:24.916Z,11.30
2023-11-12T15:47:53.901Z,11.30
2023-11-12T15:50:26.288Z,11.30
2023-11-12T15:52:53.883Z,11.30
2023-11-12T15:55:21.376Z,11.20
2023-11-12T15:57:49.079Z,11.20
2023-11-12T16:00:19.539Z,11.20
2023-11-12T16:02:48.555Z,11.20
2023-11-12T16:05:16.250Z,11.20
2023-11-12T16:07:44.769Z,11.20
2023-11-12T16:10:14.053Z,11.20
2023-11-12T16:12:42.282Z,11.20
2023-11-12T16:15:13.393Z,11.20
2023-11-12T16:17:43.389Z,11.10
2023-11-12T16:20:13.458Z,11.10
2023-11-12T16:22:42.034Z,11.10
2023-11-12T16:25:10.806Z,11.10
2023-11-12T16:27:39.536Z,11.10
2023-11-12T16:30:08.774Z,11.10
2023-11-12T16:32:39.367Z,11.00
2023-11-12T16:35:07.584Z,11.10
2023-11-12T16:37:35.005Z,11.10
2023-11-12T16:40:04.567Z,11.00
2023-11-12T16:42:32.133Z,11.00
2023-11-12T16:44:59.600Z,11.00
2023-11-12T16:47:27.089Z,11.00
2023-11-12T16:49:54.925Z,11.00
2023-11-12T16:52:22.935Z,11.00
2023-11-12T16:54:50.716Z,10.90
2023-11-12T16:57:18.555Z,11.00
2023-11-12T16:59:46.425Z,10.90
2023-11-12T17:02:15.285Z,10.90
2023-11-12T17:04:43.193Z,10.90
2023-11-12T17:07:12.336Z,10.90
2023-11-12T17:09:46.168Z,10.90
2023-11-12T17:12:15.084Z,10.90
2023-11-12T17:14:43.182Z,10.80
2023-11-12T17:17:10.896Z,10.90
2023-11-12T17:19:38.348Z,10.80
2023-11-12T17:22:06.011Z,10.80
2023-11-12T17:24:33.844Z,10.80
2023-11-12T17:27:01.525Z,10.80
2023-11-12T17:29:29.319Z,10.80
2023-11-12T17:31:56.822Z,10.80
2023-11-12T17:34:24.313Z,10.80
2023-11-12T17:36:51.829Z,10.80
2023-11-12T17:39:23.584Z,10.70
2023-11-12T17:41:53.045Z,10.80
2023-11-12T17:44:22.188Z,10.80
2023-11-12T17:46:49.868Z,10.80
2023-11-12T17:49:17.436Z,10.70
2023-11-12T17:51:45.102Z,10.80
2023-11-12T17:54:12.672Z,10.80
2023-11-12T17:56:40.094Z,10.80
2023-11-12T17:59:08.136Z,10.70
2023-11-12T18:01:35.624Z,10.80
2023-11-12T18:04:03.393Z,10.70
2023-11-12T18:06:34.099Z,10.70
2023-11-12T18:09:02.475Z,10.70
2023-11-12T18:11:32.112Z,10.70
2023-11-12T18:14:01.002Z,10.70
2023-11-12T18:16:28.737Z,10.70
2023-11-12T18:18:56.943Z,10.80
2023-11-12T18:21:24.506Z,10.70
2023-11-12T18:23:51.940Z,10.70
2023-11-12T18:26:21.024Z,10.80
2023-11-12T18:28:48.817Z,10.70
2023-11-12T18:31:20.099Z,10.80
2023-11-12T18:33:47.775Z,10.80
2023-11-12T18:36:15.303Z,10.80
2023-11-12T18:38:42.734Z,10.80
2023-11-12T18:41:10.300Z,10.80
2023-11-12T18:43:37.940Z,10.80
2023-11-12T18:46:05.723Z,10.80
2023-11-12T18:48:33.449Z,10.80
2023-11-12T18:51:01.046Z,10.90
2023-11-12T18:53:28.477Z,10.90
2023-11-12T18:55:56.265Z,11.00
2023-11-12T18:58:23.674Z,11.00
2023-11-12T19:00:51.176Z,11.00
2023-11-12T19:03:21.006Z,11.00
2023-11-12T19:05:48.834Z,11.00
2023-11-12T19:08:17.965Z,11.10
2023-11-12T19:10:45.927Z,11.10
2023-11-12T19:13:14.023Z,11.10
2023-11-12T19:15:41.589Z,11.10
2023-11-12T19:18:09.967Z,11.10
2023-11-12T19:20:38.862Z,11.10
2023-11-12T19:23:06.596Z,11.10
2023-11-12T19:25:34.008Z,11.10
2023-11-12T19:28:05.643Z,11.10
2023-11-12T19:30:34.373Z,11.10
2023-11-12T19:33:03.040Z,11.10
2023-11-12T19:35:31.753Z,11.10
2023-11-12T19:37:59.298Z,11.10
2023-11-12T19:40:26.978Z,11.10
2023-11-12T19:42:54.677Z,11.10
2023-11-12T19:45:22.716Z,11.10
2023-11-12T19:47:53.476Z,11.10
2023-11-12T19:50:22.328Z,11.10
2023-11-12T19:52:50.352Z,11.10
2023-11-12T19:55:20.366Z,11.10
2023-11-12T19:57:53.094Z,11.10
2023-11-12T20:00:22.561Z,11.10
2023-11-12T20:02:51.510Z,11.10
2023-11-12T20:05:19.656Z,11.10
2023-11-12T20:07:47.161Z,11.10
2023-11-12T20:10:14.799Z,11.10
2023-11-12T20:12:42.790Z,11.10
2023-11-12T20:15:11.060Z,11.10
2023-11-12T20:17:40.412Z,11.10
2023-11-12T20:20:08.406Z,11.10
2023-11-12T20:22:36.032Z,11.10
2023-11-12T20:25:08.440Z,11.10
2023-11-12T20:27:36.530Z,11.10
2023-11-12T20:30:05.362Z,11.10
2023-11-12T20:32:32.884Z,11.10
2023-11-12T20:35:00.461Z,11.10
2023-11-12T20:37:28.284Z,11.10
2023-11-12T20:39:55.836Z,11.10
2023-11-12T20:42:23.434Z,11.10
2023-11-12T20:44:50.973Z,11.10
2023-11-12T20:47:18.768Z,11.10
2023-11-12T20:49:46.364Z,11.10
2023-11-12T20:52:14.169Z,11.10
2023-11-12T20:54:41.816Z,11.00
2023-11-12T20:57:09.355Z,11.10
2023-11-12T20:59:37.654Z,11.00
2023-11-12T21:02:14.484Z,10.90
2023-11-12T21:04:50.145Z,11.00
2023-11-12T21:07:19.695Z,11.00
2023-11-12T21:09:50.483Z,11.00
2023-11-12T21:12:18.764Z,10.90
2023-11-12T21:14:48.301Z,10.90
2023-11-12T21:17:19.241Z,10.90
2023-11-12T21:19:47.383Z,10.90
2023-11-12T21:22:14.897Z,10.80
2023-11-12T21:24:44.166Z,10.70
2023-11-12T21:27:13.846Z,10.70
2023-11-12T21:29:41.882Z,10.70
2023-11-12T21:32:10.562Z,10.70
2023-11-12T21:34:38.321Z,10.70
2023-11-12T21:37:09.095Z,10.70
2023-11-12T21:39:37.013Z,10.70
2023-11-12T21:42:08.444Z,10.70
2023-11-12T21:44:36.814Z,10.70
2023-11-12T21:47:04.625Z,10.70
2023-11-12T21:49:32.945Z,10.70
2023-11-12T21:52:00.486Z,10.80
2023-11-12T21:54:28.078Z,10.70
2023-11-12T21:56:55.870Z,10.80
2023-11-12T21:59:24.089Z,10.80
2023-11-12T22:01:53.003Z,10.90
2023-11-12T22:04:22.685Z,10.90
2023-11-12T22:06:50.211Z,10.90
2023-11-12T22:09:18.877Z,10.90
2023-11-12T22:11:46.857Z,10.90
2023-11-12T22:14:14.588Z,11.00
2023-11-12T22:16:45.874Z,11.00
2023-11-12T22:19:13.630Z,11.00
2023-11-12T22:21:44.328Z,11.00
2023-11-12T22:24:12.394Z,11.10
2023-11-12T22:26:41.132Z,11.10
2023-11-12T22:29:08.657Z,11.10
2023-11-12T22:31:36.305Z,11.10
2023-11-12T22:34:04.958Z,11.10
2023-11-12T22:36:32.483Z,11.20
2023-11-12T22:39:00.163Z,11.20
2023-11-12T22:41:27.725Z,11.20
2023-11-12T22:43:55.425Z,11.10
2023-11-12T22:46:23.475Z,11.20
2023-11-12T22:48:53.591Z,11.20
2023-11-12T22:51:21.084Z,11.20
2023-11-12T22:53:50.356Z,11.30
2023-11-12T22:56:17.870Z,11.30
2023-11-12T22:58:45.553Z,11.30
2023-11-12T23:01:15.720Z,11.30
2023-11-12T23:03:47.976Z,11.30
2023-11-12T23:06:15.836Z,11.30
2023-11-12T23:08:44.483Z,11.40
2023-11-12T23:11:12.203Z,11.40
2023-11-12T23:13:39.910Z,11.40
2023-11-12T23:16:07.719Z,11.40
2023-11-12T23:18:35.642Z,11.40
2023-11-12T23:21:09.322Z,11.50
2023-11-12T23:23:38.201Z,11.50
2023-11-12T23:26:05.865Z,11.50
2023-11-12T23:28:33.460Z,11.50
2023-11-12T23:31:02.939Z,11.50
2023-11-12T23:33:30.899Z,11.50
2023-11-12T23:35:59.786Z,11.50
2023-11-12T23:38:27.261Z,11.60
2023-11-12T23:40:55.888Z,11.50
2023-11-12T23:43:23.404Z,11.60
2023-11-12T23:45:50.967Z,11.60
2023-11-12T23:48:19.079Z,11.60
2023-11-12T23:50:46.653Z,11.60
2023-11-12T23:53:14.416Z,11.60
2023-11-12T23:55:42.442Z,11.60
2023-11-12T23:58:10.924Z,11.60
